EUX weather

F. D. Roosevelt Airport
Sint Eustatius, Caribbean Netherlands

Public forecast

Using degrees Celsius for public forecast. Weather courtesy of forecast.io.

METAR (pilot weather report)

Retrieved 2019/08/21 13:55 UTC (40 minutes ago):

TNCE 211355Z AUTO 05014KT 020V080 //// // ///////// 30/23 Q1017 RE//

TAF (pilot weather forecast)

Closest forecast is Robert L. Bradshaw International Airport, 18.6 nm (34.5 km) SE. Retrieved 2019/08/21 12:27 UTC (2 hours ago):

TAF TKPK 211125Z 2112/2212 06012KT P6SM VCSH SCT020